Terminal Aerodrome Forecast
Issued by NWS

Home | Current Version | Previous Version | Text Only | Print | Product List | Glossary On
Versions: 1 2 3 4 5 6 7 8 9 10 11 12 13 14 15 16 17 18 19 20 21 22 23 24 25 26 27 28 29 30 31 32 33
000
FTUS43 KPAH 291902 AAA
TAFOWB
TAF AMD
KOWB 291902Z 2919/3018 31010KT P6SM SCT035
      TEMPO 2920/2923 BKN035
     FM300100 VRB03KT P6SM SKC
     FM301300 25007KT P6SM SCT035=

USA.gov is the U.S. government's official web portal to all federal, state and local government web resources and services.